Time;durP1;ratioP1;P1;durP2;ratioP2;P2;SDS_P1;SDS_P2;PMS_P1;PMS_P2;Temp;Humidity;BMP_temperature;BMP_pressure;BME280_temperature;BME280_humidity;BME280_pressure;Samples;Min_cycle;Max_cycle;Signal;HPM_P1;HPM_P2
2021/11/13 00:01:16;;;;;;;11.85;2.25;;;;;;;11.50;100.00;100714.28;5072950;28;20722;-33
2021/11/13 00:03:44;;;;;;;18.55;2.50;;;;;;;11.51;100.00;100721.53;5072400;28;20143;-35
2021/11/13 00:06:12;;;;;;;18.13;2.47;;;;;;;11.53;100.00;100720.09;5072782;28;20061;-31
2021/11/13 00:08:41;;;;;;;20.52;2.50;;;;;;;11.55;100.00;100720.63;5072523;28;20443;-33
2021/11/13 00:11:11;;;;;;;15.20;2.63;;;;;;;11.56;100.00;100716.69;5072289;28;20037;-31
2021/11/13 00:13:39;;;;;;;15.85;3.05;;;;;;;11.59;100.00;100723.63;5072865;28;20064;-30
2021/11/13 00:16:09;;;;;;;16.75;3.00;;;;;;;11.62;100.00;100709.84;5072683;28;20072;-32
2021/11/13 00:18:37;;;;;;;21.48;2.83;;;;;;;11.66;100.00;100713.69;5071862;28;20044;-31
2021/11/13 00:21:06;;;;;;;18.35;3.13;;;;;;;11.67;100.00;100711.72;5072633;28;20040;-33
2021/11/13 00:23:34;;;;;;;18.80;2.67;;;;;;;11.68;100.00;100710.56;5072489;28;20055;-34
2021/11/13 00:26:03;;;;;;;17.52;2.60;;;;;;;11.71;100.00;100708.00;5070402;28;20413;-31
2021/11/13 00:28:31;;;;;;;19.27;2.60;;;;;;;11.73;100.00;100710.47;5072494;28;20044;-32
2021/11/13 00:30:59;;;;;;;15.52;2.58;;;;;;;11.77;100.00;100705.97;5071983;28;20504;-31
2021/11/13 00:33:27;;;;;;;19.35;2.85;;;;;;;11.79;100.00;100700.06;5071847;28;20063;-32
2021/11/13 00:35:59;;;;;;;16.70;2.78;;;;;;;11.80;100.00;100704.47;5072239;28;20040;-32
2021/11/13 00:38:26;;;;;;;19.63;2.90;;;;;;;11.84;100.00;100709.16;5072495;28;20052;-34
2021/11/13 00:40:54;;;;;;;15.70;2.65;;;;;;;11.85;100.00;100699.63;5071594;28;20044;-32
2021/11/13 00:43:26;;;;;;;11.27;2.67;;;;;;;11.84;100.00;100703.56;5068387;28;20055;-32
2021/11/13 00:45:55;;;;;;;15.23;2.40;;;;;;;11.83;100.00;100698.28;5072027;28;20062;-32
2021/11/13 00:48:22;;;;;;;14.05;2.25;;;;;;;11.80;100.00;100699.72;5070740;28;20040;-33
2021/11/13 00:50:50;;;;;;;19.25;2.67;;;;;;;11.78;100.00;100696.44;5072123;28;20138;-30
2021/11/13 00:53:19;;;;;;;17.48;3.20;;;;;;;11.77;100.00;100705.13;5071182;28;20052;-31
2021/11/13 00:55:46;;;;;;;14.88;2.85;;;;;;;11.72;100.00;100703.22;5071885;28;20068;-32
2021/11/13 00:58:14;;;;;;;13.45;2.28;;;;;;;11.70;100.00;100697.94;5071489;28;20058;-33
2021/11/13 01:00:43;;;;;;;11.70;2.00;;;;;;;11.72;100.00;100706.03;5058736;28;20044;-34
2021/11/13 01:03:11;;;;;;;15.43;2.80;;;;;;;11.70;100.00;100695.16;5071456;28;20099;-30
2021/11/13 01:05:39;;;;;;;16.60;2.30;;;;;;;11.72;100.00;100695.69;5071648;28;20386;-30
2021/11/13 01:08:07;;;;;;;14.68;2.78;;;;;;;11.73;100.00;100702.09;5063763;28;20063;-31
2021/11/13 01:10:35;;;;;;;15.07;2.55;;;;;;;11.73;100.00;100696.50;5071522;28;20045;-31
2021/11/13 01:13:03;;;;;;;12.80;2.13;;;;;;;11.73;100.00;100690.91;5071477;28;20040;-30
2021/11/13 01:15:31;;;;;;;20.90;3.25;;;;;;;11.76;100.00;100701.50;5071057;28;20061;-31
2021/11/13 01:18:00;;;;;;;21.17;2.83;;;;;;;11.78;100.00;100709.59;5071173;28;20053;-33
2021/11/13 01:20:29;;;;;;;17.23;2.50;;;;;;;11.78;100.00;100702.03;5071768;28;20055;-32
2021/11/13 01:22:58;;;;;;;16.95;2.47;;;;;;;11.79;100.00;100698.06;5070361;28;20048;-32
2021/11/13 01:25:26;;;;;;;20.38;2.55;;;;;;;11.80;100.00;100701.69;5071558;28;20041;-30
2021/11/13 01:27:54;;;;;;;13.60;1.90;;;;;;;11.80;100.00;100696.94;5070643;28;20042;-31
2021/11/13 01:30:24;;;;;;;11.77;2.33;;;;;;;11.82;100.00;100700.25;5060332;28;20044;-32
2021/11/13 01:32:52;;;;;;;19.45;2.30;;;;;;;11.82;100.00;100705.84;5070682;28;20045;-32
2021/11/13 01:35:24;;;;;;;13.82;2.10;;;;;;;11.83;100.00;100698.28;5070799;28;20044;-32
2021/11/13 01:37:53;;;;;;;15.98;2.20;;;;;;;11.83;100.00;100696.31;5070705;28;20715;-31
2021/11/13 01:40:23;;;;;;;19.08;3.08;;;;;;;11.83;100.00;100701.06;5071165;28;20496;-34
2021/11/13 01:42:54;;;;;;;16.80;2.55;;;;;;;11.82;100.00;100699.41;5070317;28;20511;-31
2021/11/13 01:45:23;;;;;;;20.00;2.75;;;;;;;11.83;100.00;100701.91;5070697;28;20071;-32
2021/11/13 01:47:52;;;;;;;18.00;2.30;;;;;;;11.82;100.00;100696.63;5070808;28;20416;-30
2021/11/13 01:50:24;;;;;;;11.27;2.15;;;;;;;11.84;100.00;100708.31;5070635;28;20407;-30
2021/11/13 01:52:52;;;;;;;;;;;;;;;11.80;100.00;100708.09;5071309;28;20036;-31
2021/11/13 01:55:21;;;;;;;20.52;2.58;;;;;;;11.79;100.00;100709.25;5070856;28;19928;-31
2021/11/13 01:57:50;;;;;;;13.48;2.28;;;;;;;11.83;100.00;100712.25;5070119;28;20584;-30
2021/11/13 02:00:24;;;;;;;15.07;2.95;;;;;;;11.85;100.00;100709.97;5070843;28;20072;-30
2021/11/13 02:02:52;;;;;;;13.30;2.17;;;;;;;11.84;100.00;100709.16;5058996;28;20060;-32
2021/11/13 02:05:21;;;;;;;18.10;2.40;;;;;;;11.86;100.00;100703.25;5070579;28;20515;-31
2021/11/13 02:07:49;;;;;;;16.23;2.38;;;;;;;11.86;100.00;100706.88;5070899;28;20048;-32
2021/11/13 02:10:20;;;;;;;15.35;2.75;;;;;;;11.86;100.00;100701.28;5070304;28;20040;-30
2021/11/13 02:12:48;;;;;;;16.15;2.78;;;;;;;11.86;100.00;100697.66;5070781;28;20049;-32
2021/11/13 02:15:16;;;;;;;15.13;2.17;;;;;;;11.85;100.00;100699.63;5070613;28;20048;-32
2021/11/13 02:17:44;;;;;;;10.20;2.20;;;;;;;11.84;100.00;100697.13;5070463;28;20048;-31
2021/11/13 02:20:28;;;;;;;11.13;1.67;;;;;;;11.83;100.00;100699.09;5070592;28;20067;-31
2021/11/13 02:22:59;;;;;;;13.50;1.88;;;;;;;11.82;100.00;100700.25;5070729;28;20052;-31
2021/11/13 02:25:29;;;;;;;12.18;2.20;;;;;;;11.80;100.00;100708.09;5070076;28;20048;-32
2021/11/13 02:27:58;;;;;;;11.68;1.90;;;;;;;11.80;100.00;100698.88;5072075;28;20087;-36
2021/11/13 02:30:27;;;;;;;15.93;2.28;;;;;;;11.79;100.00;100698.06;5074685;28;20048;-32
2021/11/13 02:32:55;;;;;;;11.15;1.83;;;;;;;11.79;100.00;100695.25;5074416;28;20052;-30
2021/11/13 02:35:27;;;;;;;11.43;2.05;;;;;;;11.78;100.00;100690.84;5074121;28;20131;-31
2021/11/13 02:37:55;;;;;;;15.07;2.15;;;;;;;11.77;100.00;100702.34;5074816;28;20059;-30
2021/11/13 02:40:23;;;;;;;13.27;2.22;;;;;;;11.78;100.00;100699.22;5073507;28;20045;-32
2021/11/13 02:42:52;;;;;;;12.25;1.80;;;;;;;11.78;100.00;100702.03;5074861;28;20045;-32
2021/11/13 02:45:20;;;;;;;10.82;2.22;;;;;;;11.76;100.00;100701.50;5073313;28;20048;-31
2021/11/13 02:47:50;;;;;;;9.88;1.48;;;;;;;11.72;100.00;100706.84;5074454;28;20052;-31
2021/11/13 02:50:19;;;;;;;6.55;1.25;;;;;;;11.68;100.00;100713.38;5073618;28;20413;-33
2021/11/13 02:52:52;;;;;;;9.13;1.80;;;;;;;11.67;100.00;100709.75;5073762;28;20139;-31
2021/11/13 02:55:20;;;;;;;14.73;1.98;;;;;;;11.68;100.00;100714.19;5073919;28;20102;-31
2021/11/13 02:57:48;;;;;;;12.25;1.92;;;;;;;11.69;100.00;100709.44;5074342;28;20086;-30
2021/11/13 03:00:18;;;;;;;10.27;1.50;;;;;;;11.68;100.00;100710.56;5073497;28;20039;-31
2021/11/13 03:02:46;;;;;;;6.20;0.95;;;;;;;11.67;100.00;100708.91;5074026;28;20044;-32
2021/11/13 03:05:26;;;;;;;8.32;1.30;;;;;;;11.66;100.00;100715.63;5073671;28;20055;-32
2021/11/13 03:07:56;;;;;;;13.20;2.03;;;;;;;11.64;100.00;100713.16;5073744;28;20049;-30
2021/11/13 03:10:26;;;;;;;5.43;1.00;;;;;;;11.64;100.00;100723.50;5073956;28;20488;-31
2021/11/13 03:12:54;;;;;;;7.10;0.98;;;;;;;11.62;100.00;100722.97;5073787;28;20044;-33
2021/11/13 03:15:24;;;;;;;5.22;1.00;;;;;;;11.60;100.00;100719.66;5073056;28;20043;-32
2021/11/13 03:17:52;;;;;;;10.05;1.55;;;;;;;11.58;100.00;100725.59;5073708;28;20058;-32
2021/11/13 03:20:22;;;;;;;6.45;1.20;;;;;;;11.55;100.00;100723.41;5060613;28;20355;-31
2021/11/13 03:22:50;;;;;;;10.98;1.55;;;;;;;11.52;100.00;100721.22;5073733;28;20040;-33
2021/11/13 03:25:24;;;;;;;6.22;0.90;;;;;;;11.51;100.00;100721.53;5073432;28;20059;-31
2021/11/13 03:27:54;;;;;;;7.72;1.20;;;;;;;11.47;100.00;100726.91;5066627;28;20036;-30
2021/11/13 03:30:23;;;;;;;7.43;1.20;;;;;;;11.45;100.00;100725.56;5073052;28;20056;-31
2021/11/13 03:32:52;;;;;;;4.10;0.73;;;;;;;11.41;100.00;100728.13;5073632;28;20489;-31
2021/11/13 03:35:27;;;;;;;6.55;1.20;;;;;;;11.38;100.00;100726.81;5072519;28;20125;-32
2021/11/13 03:37:56;;;;;;;3.45;0.80;;;;;;;11.36;100.00;100731.03;5073436;28;20260;-32
2021/11/13 03:40:25;;;;;;;8.80;1.05;;;;;;;11.34;100.00;100731.34;5072678;28;20398;-31
2021/11/13 03:42:53;;;;;;;3.58;0.80;;;;;;;11.32;100.00;100736.41;5072528;28;20068;-30
2021/11/13 03:45:21;;;;;;;4.30;1.08;;;;;;;11.31;100.00;100734.75;5073253;28;20048;-31
2021/11/13 03:47:49;;;;;;;7.00;0.90;;;;;;;11.31;100.00;100736.72;5072213;28;20102;-31
2021/11/13 03:50:17;;;;;;;5.22;0.90;;;;;;;11.29;100.00;100737.03;5072725;28;20386;-31
2021/11/13 03:52:45;;;;;;;2.50;0.60;;;;;;;11.29;100.00;100736.19;5072966;28;20060;-32
2021/11/13 03:55:13;;;;;;;1.98;0.50;;;;;;;11.28;100.00;100740.13;5062109;28;20412;-30
2021/11/13 03:57:42;;;;;;;4.75;0.80;;;;;;;11.25;100.00;100738.75;5072444;28;20040;-29
2021/11/13 04:00:11;;;;;;;3.95;0.80;;;;;;;11.25;100.00;100743.53;5073059;28;20055;-37
2021/11/13 04:02:46;;;;;;;2.88;0.60;;;;;;;11.22;100.00;100744.13;5072426;28;20048;-35
2021/11/13 04:05:14;;;;;;;2.28;0.65;;;;;;;11.20;100.00;100749.19;5072857;28;20047;-35
2021/11/13 04:07:42;;;;;;;1.95;0.43;;;;;;;11.18;100.00;100741.16;5072110;28;20056;-33
2021/11/13 04:10:12;;;;;;;2.58;0.65;;;;;;;11.18;100.00;100743.13;5072200;28;20041;-30
2021/11/13 04:12:43;;;;;;;3.70;0.52;;;;;;;11.16;100.00;100753.75;5072553;28;20066;-33
2021/11/13 04:15:11;;;;;;;8.93;1.15;;;;;;;11.14;100.00;100762.44;5072591;28;20037;-32
2021/11/13 04:17:40;;;;;;;9.38;1.65;;;;;;;11.16;100.00;100764.94;5072151;28;20123;-31
2021/11/13 04:20:11;;;;;;;4.30;1.00;;;;;;;11.16;100.00;100753.75;5072193;28;20040;-30
2021/11/13 04:22:38;;;;;;;2.78;0.90;;;;;;;11.18;100.00;100759.88;5073087;28;20060;-32
2021/11/13 04:25:07;;;;;;;3.40;0.90;;;;;;;11.20;100.00;100766.78;5071721;28;20627;-32
2021/11/13 04:27:35;;;;;;;3.10;0.68;;;;;;;11.21;100.00;100770.41;5059563;28;20048;-32
2021/11/13 04:30:08;;;;;;;5.55;1.27;;;;;;;11.23;100.00;100768.97;5072268;28;20414;-31
2021/11/13 04:32:37;;;;;;;8.93;1.40;;;;;;;11.22;100.00;100770.09;5071875;28;20056;-32
2021/11/13 04:35:19;;;;;;;10.55;1.20;;;;;;;11.25;100.00;100771.47;5072244;28;20408;-32
2021/11/13 04:37:50;;;;;;;5.80;0.95;;;;;;;11.25;100.00;100779.84;5072000;28;20055;-32
2021/11/13 04:40:23;;;;;;;7.45;1.42;;;;;;;11.27;100.00;100777.56;5071940;28;20075;-32
2021/11/13 04:42:51;;;;;;;7.88;1.52;;;;;;;11.28;100.00;100780.06;5072220;28;20059;-31
2021/11/13 04:45:21;;;;;;;6.20;1.27;;;;;;;11.31;100.00;100779.44;5063706;28;20051;-32
2021/11/13 04:47:49;;;;;;;7.45;1.30;;;;;;;11.31;100.00;100785.03;5072070;28;20140;-31
2021/11/13 04:50:20;;;;;;;7.53;1.25;;;;;;;11.32;100.00;100789.50;5071400;28;20044;-32
2021/11/13 04:52:48;;;;;;;5.03;1.15;;;;;;;11.31;100.00;100785.03;5072043;28;20055;-31
2021/11/13 04:55:17;;;;;;;4.00;0.75;;;;;;;11.29;100.00;100787.31;5071654;28;20056;-31
2021/11/13 04:57:45;;;;;;;3.17;1.08;;;;;;;11.28;100.00;100790.41;5071818;28;20132;-31
2021/11/13 05:00:19;;;;;;;3.03;0.80;;;;;;;11.25;100.00;100796.59;5070535;28;20052;-32
2021/11/13 05:02:48;;;;;;;3.35;0.70;;;;;;;11.22;100.00;100809.22;5072137;28;20292;-31
2021/11/13 05:05:16;;;;;;;2.63;0.63;;;;;;;11.21;100.00;100815.09;5071241;28;20048;-31
2021/11/13 05:07:45;;;;;;;2.42;0.60;;;;;;;11.21;100.00;100813.13;5071282;28;20501;-32
2021/11/13 05:10:14;;;;;;;1.67;0.60;;;;;;;11.21;100.00;100817.88;5069933;28;20668;-31
2021/11/13 05:12:42;;;;;;;3.83;0.73;;;;;;;11.21;100.00;100821.50;5071253;28;20041;-31
2021/11/13 05:15:14;;;;;;;2.97;0.80;;;;;;;11.22;100.00;100820.38;5071194;28;20044;-33
2021/11/13 05:17:42;;;;;;;4.00;0.75;;;;;;;11.23;100.00;100824.84;5071229;28;20056;-30
2021/11/13 05:20:18;;;;;;;5.38;0.82;;;;;;;11.23;100.00;100832.38;5070944;28;20049;-31
2021/11/13 05:22:46;;;;;;;;;;;;;;;11.18;100.00;100833.31;5068861;28;20102;-31
2021/11/13 05:25:17;;;;;;;2.80;0.60;;;;;;;11.17;100.00;100831.66;5071419;28;20011;-31
2021/11/13 05:27:46;;;;;;;2.33;0.60;;;;;;;11.21;100.00;100827.09;5070093;28;20139;-31
2021/11/13 05:30:16;;;;;;;2.60;0.65;;;;;;;11.23;100.00;100829.59;5071401;28;20066;-32
2021/11/13 05:32:44;;;;;;;2.60;0.77;;;;;;;11.23;100.00;100833.22;5070980;28;20087;-30
2021/11/13 05:35:12;;;;;;;7.72;1.10;;;;;;;11.23;100.00;100835.16;5070607;28;20055;-30
2021/11/13 05:37:41;;;;;;;4.10;0.80;;;;;;;11.23;100.00;100837.97;5070592;28;20048;-30
2021/11/13 05:40:11;;;;;;;7.35;0.98;;;;;;;11.24;100.00;100842.41;5069676;28;20140;-31
2021/11/13 05:42:40;;;;;;;3.47;0.80;;;;;;;11.25;100.00;100835.69;5066891;28;20603;-31
2021/11/13 05:45:10;;;;;;;4.43;0.65;;;;;;;11.25;100.00;100844.91;5070161;28;20485;-32
2021/11/13 05:47:39;;;;;;;3.75;0.80;;;;;;;11.24;100.00;100846.03;5070117;28;20046;-31
2021/11/13 05:50:11;;;;;;;5.70;0.77;;;;;;;11.22;100.00;100834.34;5070010;28;20041;-31
2021/11/13 05:52:41;;;;;;;3.30;0.70;;;;;;;11.20;100.00;100838.56;5063573;28;20045;-32
2021/11/13 05:55:10;;;;;;;2.45;0.70;;;;;;;11.13;100.00;100844.56;5070288;28;20044;-33
2021/11/13 05:57:39;;;;;;;2.35;0.73;;;;;;;11.10;100.00;100855.50;5070618;28;20420;-33
2021/11/13 06:00:10;;;;;;;3.95;0.73;;;;;;;11.03;100.00;100853.91;5070605;28;20052;-31
2021/11/13 06:02:41;;;;;;;1.20;0.50;;;;;;;10.97;100.00;100859.91;5070217;28;20057;-30
2021/11/13 06:05:10;;;;;;;2.58;0.85;;;;;;;10.92;100.00;100860.78;5070891;28;20406;-31
2021/11/13 06:07:38;;;;;;;4.65;0.90;;;;;;;10.88;100.00;100847.72;5066930;28;20114;-30
2021/11/13 06:10:09;;;;;;;2.72;0.70;;;;;;;10.87;100.00;100851.66;5070455;28;20068;-29
2021/11/13 06:12:36;;;;;;;3.03;0.60;;;;;;;10.83;100.00;100853.38;5070178;28;20051;-32
2021/11/13 06:15:05;;;;;;;3.97;0.75;;;;;;;10.81;100.00;100853.69;5071120;28;20509;-32
2021/11/13 06:17:33;;;;;;;2.92;1.08;;;;;;;10.79;100.00;100861.53;5069824;28;20044;-31
2021/11/13 06:20:01;;;;;;;2.83;0.80;;;;;;;10.76;100.00;100864.94;5059564;28;20060;-31
2021/11/13 06:22:29;;;;;;;2.28;0.60;;;;;;;10.70;100.00;100858.59;5070379;28;20071;-30
2021/11/13 06:24:57;;;;;;;3.67;0.73;;;;;;;10.64;100.00;100862.56;5070282;28;20060;-31
2021/11/13 06:27:26;;;;;;;2.45;0.50;;;;;;;10.60;100.00;100869.88;5070820;28;20055;-33
2021/11/13 06:29:54;;;;;;;2.72;0.70;;;;;;;10.51;100.00;100882.84;5067242;28;20394;-32
2021/11/13 06:32:21;;;;;;;1.73;0.70;;;;;;;10.45;100.00;100886.81;5069882;28;20041;-31
2021/11/13 06:34:49;;;;;;;2.67;0.63;;;;;;;10.40;100.00;100892.44;5070558;28;20051;-31
2021/11/13 06:37:17;;;;;;;3.65;0.90;;;;;;;10.35;100.00;100889.75;5070433;28;20063;-31
2021/11/13 06:39:45;;;;;;;3.13;0.82;;;;;;;10.30;100.00;100882.25;5070319;28;20041;-30
2021/11/13 06:42:13;;;;;;;2.03;0.65;;;;;;;10.27;100.00;100893.19;5070365;28;20041;-31
2021/11/13 06:44:42;;;;;;;2.22;0.85;;;;;;;10.22;100.00;100901.59;5069896;28;20048;-30
2021/11/13 06:47:10;;;;;;;3.10;0.90;;;;;;;10.18;100.00;100906.09;5070126;28;20063;-31
2021/11/13 06:49:38;;;;;;;2.78;0.80;;;;;;;10.14;100.00;100913.38;5069770;28;20484;-32
2021/11/13 06:52:08;;;;;;;2.33;0.73;;;;;;;10.09;100.00;100922.63;5068898;28;20048;-34
2021/11/13 06:54:36;;;;;;;2.05;0.80;;;;;;;10.05;100.00;100929.91;5069968;28;20389;-33
2021/11/13 06:57:05;;;;;;;2.65;0.73;;;;;;;10.00;100.00;100941.09;5069489;28;20041;-31
2021/11/13 06:59:33;;;;;;;2.55;0.70;;;;;;;9.94;100.00;100940.34;5068038;28;20059;-31
2021/11/13 07:02:02;;;;;;;2.38;0.95;;;;;;;9.92;100.00;100948.16;5069474;28;20044;-35
2021/11/13 07:04:30;;;;;;;4.97;1.30;;;;;;;9.88;100.00;100944.28;5065108;28;20131;-33
2021/11/13 07:06:58;;;;;;;3.25;1.17;;;;;;;9.86;100.00;100954.88;5068198;28;20398;-33
2021/11/13 07:09:26;;;;;;;2.78;0.82;;;;;;;9.83;100.00;100966.63;5068489;28;20047;-34
2021/11/13 07:11:53;;;;;;;3.47;0.90;;;;;;;9.79;100.00;100971.09;5069464;28;20048;-35
2021/11/13 07:14:22;;;;;;;2.05;0.85;;;;;;;9.76;100.00;100970.88;5070249;28;20045;-31
2021/11/13 07:16:50;;;;;;;2.03;0.80;;;;;;;9.71;100.00;100980.09;5073364;28;20052;-31
2021/11/13 07:19:19;;;;;;;2.72;0.82;;;;;;;9.68;100.00;100987.09;5071645;28;20166;-33
2021/11/13 07:21:47;;;;;;;2.10;0.75;;;;;;;9.64;100.00;100982.38;5073303;28;20045;-31
2021/11/13 07:24:16;;;;;;;2.33;0.80;;;;;;;9.61;100.00;100985.75;5073339;28;20059;-30
2021/11/13 07:26:51;;;;;;;1.92;0.73;;;;;;;9.57;100.00;100995.81;5073331;28;20533;-31
2021/11/13 07:29:19;;;;;;;1.60;0.70;;;;;;;9.53;100.00;101001.13;5073463;28;20041;-32
2021/11/13 07:31:47;;;;;;;4.57;1.20;;;;;;;9.51;100.00;101005.31;5073565;28;20121;-31
2021/11/13 07:34:14;;;;;;;2.30;1.15;;;;;;;9.51;100.00;100999.75;5072964;28;20071;-30
2021/11/13 07:36:44;;;;;;;2.38;0.90;;;;;;;9.49;100.00;101008.41;5073615;28;20067;-32
2021/11/13 07:39:12;;;;;;;2.30;0.90;;;;;;;9.47;100.00;101013.41;5073364;28;20048;-30
2021/11/13 07:41:40;;;;;;;3.30;0.98;;;;;;;9.46;100.00;101016.50;5072874;28;20131;-30
2021/11/13 07:44:08;;;;;;;2.17;0.80;;;;;;;9.46;100.00;101022.06;5060573;28;20075;-29
2021/11/13 07:46:36;;;;;;;2.05;1.02;;;;;;;9.47;100.00;101021.78;5072367;28;20040;-31
2021/11/13 07:49:04;;;;;;;3.53;1.52;;;;;;;9.52;100.00;101023.72;5071809;28;20079;-30
2021/11/13 07:51:33;;;;;;;2.70;1.38;;;;;;;9.57;100.00;101026.47;5064897;28;20036;-33
2021/11/13 07:54:02;;;;;;;2.88;1.55;;;;;;;9.68;100.00;101039.19;5071825;28;20053;-32
2021/11/13 07:56:30;;;;;;;2.72;1.42;;;;;;;9.77;100.00;101045.84;5071576;28;20050;-31
2021/11/13 07:58:58;;;;;;;11.73;1.85;;;;;;;9.81;100.00;101040.50;5071350;28;20044;-33
2021/11/13 08:01:26;;;;;;;8.75;1.92;;;;;;;9.85;100.00;101036.84;5072131;28;20051;-31
2021/11/13 08:03:54;;;;;;;4.25;1.38;;;;;;;9.90;100.00;101050.75;5070310;28;20051;-31
2021/11/13 08:06:22;;;;;;;3.47;2.00;;;;;;;9.95;100.00;101047.09;5070448;28;20052;-30
2021/11/13 08:08:50;;;;;;;3.85;1.42;;;;;;;10.01;100.00;101052.31;5071202;28;20516;-30
2021/11/13 08:11:19;;;;;;;3.13;1.88;;;;;;;10.12;100.00;101060.63;5071264;28;20056;-31
2021/11/13 08:13:47;;;;;;;2.88;1.55;;;;;;;10.25;100.00;101062.75;5071653;28;20048;-32
2021/11/13 08:16:14;;;;;;;2.78;1.33;;;;;;;10.44;100.00;101069.28;5070890;28;20540;-31
2021/11/13 08:18:42;;;;;;;3.63;1.65;;;;;;;10.64;100.00;101068.25;5071731;28;20083;-30
2021/11/13 08:21:11;;;;;;;5.20;1.40;;;;;;;10.78;100.00;101074.00;5071410;28;20134;-31
2021/11/13 08:23:41;;;;;;;3.80;1.50;;;;;;;10.92;100.00;101078.56;5067204;28;20056;-32
2021/11/13 08:26:10;;;;;;;4.53;1.60;;;;;;;11.01;100.00;101087.09;5072068;28;20053;-33
2021/11/13 08:28:39;;;;;;;2.10;1.08;;;;;;;11.07;100.00;101094.31;5071483;28;20049;-34
2021/11/13 08:31:07;;;;;;;2.70;1.10;;;;;;;11.16;100.00;101094.50;5070837;28;20050;-30
2021/11/13 08:33:35;;;;;;;3.55;1.17;;;;;;;11.23;100.00;101094.94;5071161;28;20386;-32
2021/11/13 08:36:03;;;;;;;2.47;1.00;;;;;;;11.28;100.00;101097.69;5070942;28;20100;-30
2021/11/13 08:38:31;;;;;;;2.28;0.90;;;;;;;11.32;100.00;101098.75;5070689;28;20045;-31
2021/11/13 08:40:59;;;;;;;1.73;0.75;;;;;;;11.33;100.00;101094.84;5070846;28;20044;-31
2021/11/13 08:43:27;;;;;;;5.18;1.55;;;;;;;11.34;100.00;101093.72;5071295;28;20369;-30
2021/11/13 08:45:56;;;;;;;3.00;1.30;;;;;;;11.34;100.00;101096.50;5070498;28;20044;-31
2021/11/13 08:48:24;;;;;;;3.08;1.35;;;;;;;11.34;100.00;101100.13;5071134;28;20048;-31
2021/11/13 08:50:52;;;;;;;3.90;2.20;;;;;;;11.44;100.00;101106.69;5070862;28;20064;-31
2021/11/13 08:53:20;;;;;;;4.25;2.58;;;;;;;11.83;100.00;101114.88;5070578;28;20366;-29
2021/11/13 08:55:48;;;;;;;5.65;2.70;;;;;;;12.51;100.00;101118.00;5071013;28;20048;-31
2021/11/13 08:58:16;;;;;;;5.22;2.70;;;;;;;13.18;100.00;101114.84;5070150;28;20049;-32
2021/11/13 09:00:47;;;;;;;5.32;2.55;;;;;;;13.76;100.00;101127.06;5070871;28;20056;-36
2021/11/13 09:03:20;;;;;;;3.60;1.98;;;;;;;14.16;100.00;101126.47;5069179;28;20397;-34
2021/11/13 09:05:48;;;;;;;5.45;1.83;;;;;;;14.33;100.00;101132.22;5068276;28;20429;-32
2021/11/13 09:08:16;;;;;;;3.50;1.38;;;;;;;14.46;100.00;101131.34;5070857;28;20048;-31
2021/11/13 09:10:45;;;;;;;6.03;2.08;;;;;;;14.65;100.00;101134.78;5070613;28;20063;-31
2021/11/13 09:13:14;;;;;;;10.27;2.65;;;;;;;14.81;100.00;101138.88;5069947;28;20048;-32
2021/11/13 09:15:42;;;;;;;8.15;2.40;;;;;;;14.93;100.00;101137.47;5070261;28;20055;-32
2021/11/13 09:18:11;;;;;;;8.18;2.15;;;;;;;14.96;100.00;101134.00;5070248;28;20052;-32
2021/11/13 09:20:41;;;;;;;10.50;2.58;;;;;;;14.92;100.00;101144.22;5069611;28;20045;-33
2021/11/13 09:23:12;;;;;;;10.60;2.17;;;;;;;14.80;100.00;101142.00;5070313;28;20072;-31
2021/11/13 09:25:41;;;;;;;7.47;2.23;;;;;;;14.71;100.00;101143.94;5069825;28;20122;-31
2021/11/13 09:28:09;;;;;;;9.63;2.30;;;;;;;14.63;100.00;101139.91;5069907;28;20323;-31
2021/11/13 09:30:38;;;;;;;8.82;2.25;;;;;;;14.57;100.00;101146.81;5069904;28;20576;-31
2021/11/13 09:33:07;;;;;;;8.32;2.03;;;;;;;14.51;100.00;101153.69;5070474;28;20044;-31
2021/11/13 09:35:37;;;;;;;6.55;1.60;;;;;;;14.45;100.00;101154.97;5069501;28;20057;-31
2021/11/13 09:38:24;;;;;;;8.85;1.95;;;;;;;14.40;100.00;101155.03;5070242;28;20055;-31
2021/11/13 09:40:54;;;;;;;6.13;1.70;;;;;;;14.34;100.00;101159.16;5069746;28;20513;-31
2021/11/13 09:43:23;;;;;;;10.45;2.38;;;;;;;14.30;100.00;101160.94;5071224;28;20105;-32
2021/11/13 09:45:52;;;;;;;10.40;1.90;;;;;;;14.27;100.00;101161.56;5070685;28;20531;-32
2021/11/13 09:48:20;;;;;;;11.52;2.25;;;;;;;14.27;100.00;101172.78;5070576;28;20036;-32
2021/11/13 09:50:50;;;;;;;9.70;1.60;;;;;;;14.31;100.00;101176.63;5071074;28;20058;-32
2021/11/13 09:53:20;;;;;;;7.03;1.73;;;;;;;14.29;100.00;101181.72;5070723;28;20465;-32
2021/11/13 09:55:51;;;;;;;4.32;1.13;;;;;;;14.26;100.00;101188.78;5068792;28;20639;-30
2021/11/13 09:58:20;;;;;;;6.75;1.42;;;;;;;14.23;100.00;101191.41;5070948;28;20044;-31
2021/11/13 10:00:48;;;;;;;10.95;1.80;;;;;;;14.26;100.00;101193.56;5070648;28;20523;-32
2021/11/13 10:03:19;;;;;;;9.00;1.50;;;;;;;14.41;100.00;101193.25;5070321;28;20102;-31
2021/11/13 10:05:48;;;;;;;10.38;1.67;;;;;;;14.57;100.00;101203.00;5070403;28;20063;-33
2021/11/13 10:08:16;;;;;;;7.95;1.40;;;;;;;14.69;100.00;101206.06;5070476;28;20044;-31
2021/11/13 10:10:45;;;;;;;6.93;1.23;;;;;;;14.76;100.00;101200.00;5070358;28;20045;-31
2021/11/13 10:13:27;;;;;;;7.38;1.73;;;;;;;14.79;100.00;101202.97;5070816;28;20044;-32
2021/11/13 10:15:57;;;;;;;6.53;1.33;;;;;;;14.77;100.00;101199.69;5066417;28;20068;-31
2021/11/13 10:18:27;;;;;;;5.65;0.90;;;;;;;14.77;100.00;101202.50;5070498;28;20475;-32
2021/11/13 10:21:03;;;;;;;3.88;1.08;;;;;;;14.81;100.00;101202.66;5070229;28;20064;-32
2021/11/13 10:23:39;;;;;;;4.90;0.90;;;;;;;14.89;100.00;101206.69;5070277;28;20143;-33
2021/11/13 10:26:11;;;;;;;6.53;1.23;;;;;;;14.95;100.00;101206.25;5069712;28;20056;-31
2021/11/13 10:28:48;;;;;;;6.47;1.33;;;;;;;15.00;100.00;101213.69;5070450;28;20416;-32
2021/11/13 10:31:19;;;;;;;6.80;1.23;;;;;;;15.03;100.00;101207.44;5068603;28;20072;-31
2021/11/13 10:33:48;;;;;;;6.90;1.10;;;;;;;15.18;100.00;101209.03;5070863;28;20036;-31
2021/11/13 10:36:22;;;;;;;4.63;1.13;;;;;;;15.40;100.00;101217.41;5070073;28;20047;-35
2021/11/13 10:38:57;;;;;;;4.18;1.00;;;;;;;15.64;100.00;101205.81;5070326;28;20040;-32
2021/11/13 10:41:25;;;;;;;5.85;0.82;;;;;;;15.80;100.00;101216.28;5070035;28;20056;-31
2021/11/13 10:43:54;;;;;;;4.10;1.00;;;;;;;15.96;100.00;101213.06;5070320;28;20041;-35
2021/11/13 10:46:25;;;;;;;3.33;0.80;;;;;;;15.99;100.00;101213.19;5070057;28;20037;-33
2021/11/13 10:48:55;;;;;;;5.28;0.95;;;;;;;15.97;100.00;101218.34;5071627;28;20044;-30
2021/11/13 10:51:26;;;;;;;3.45;0.70;;;;;;;15.93;100.00;101216.50;5073178;28;20080;-30
2021/11/13 10:53:54;;;;;;;6.57;1.42;;;;;;;15.96;100.00;101216.69;5074104;28;20056;-32
2021/11/13 10:56:23;;;;;;;3.40;0.85;;;;;;;16.01;100.00;101215.69;5074046;28;20467;-32
2021/11/13 10:59:03;;;;;;;3.65;0.80;;;;;;;16.04;100.00;101215.03;5073565;28;20049;-32
2021/11/13 11:01:35;;;;;;;2.63;0.70;;;;;;;16.09;100.00;101217.72;5073275;28;20464;-32
2021/11/13 11:04:11;;;;;;;3.65;0.80;;;;;;;16.12;100.00;101220.72;5068740;28;20040;-30
2021/11/13 11:06:47;;;;;;;2.70;0.63;;;;;;;16.19;100.00;101218.22;5070706;28;20056;-33
2021/11/13 11:09:21;;;;;;;4.20;0.80;;;;;;;16.36;100.00;101210.97;5068760;28;20052;-35
2021/11/13 11:11:50;;;;;;;5.55;1.13;;;;;;;16.53;100.00;101211.00;5071130;28;20460;-32
2021/11/13 11:14:22;;;;;;;3.00;0.60;;;;;;;16.71;100.00;101218.31;5070076;28;20405;-34
2021/11/13 11:16:53;;;;;;;3.22;0.80;;;;;;;16.77;100.00;101210.53;5071626;28;20053;-33
2021/11/13 11:19:24;;;;;;;5.00;1.10;;;;;;;16.86;100.00;101214.16;5071778;28;20056;-34
2021/11/13 11:21:55;;;;;;;5.30;1.02;;;;;;;16.98;100.00;101216.31;5072410;28;20440;-31
2021/11/13 11:24:26;;;;;;;6.38;1.02;;;;;;;17.07;100.00;101214.28;5072590;28;20048;-36
2021/11/13 11:26:58;;;;;;;5.25;1.48;;;;;;;17.19;100.00;101228.53;5071706;28;20124;-37